Time;durP1;ratioP1;P1;durP2;ratioP2;P2;SDS_P1;SDS_P2;PMS_P1;PMS_P2;Temp;Humidity;BMP_temperature;BMP_pressure;BME280_temperature;BME280_humidity;BME280_pressure;Samples;Min_cycle;Max_cycle;Signal;HPM_P1;HPM_P2
2022/08/23 00:01:21;;;;;;;6.30;2.45;;;;;;;22.55;48.22;101275.34;5026476;28;20149;-62
2022/08/23 00:03:51;;;;;;;6.53;2.88;;;;;;;22.54;47.99;101270.97;5026697;28;20048;-61
2022/08/23 00:06:21;;;;;;;6.15;2.58;;;;;;;22.52;48.33;101273.22;5026393;28;20057;-62
2022/08/23 00:08:50;;;;;;;6.35;3.30;;;;;;;22.50;48.17;101271.88;5025770;28;20482;-61
2022/08/23 00:11:26;;;;;;;5.20;2.70;;;;;;;22.50;48.12;101272.69;5025763;28;20512;-62
2022/08/23 00:13:54;;;;;;;7.63;3.47;;;;;;;22.49;48.20;101276.53;5026254;28;20070;-62
2022/08/23 00:16:22;;;;;;;5.28;2.63;;;;;;;22.48;48.44;101268.59;5026053;28;20084;-61
2022/08/23 00:18:50;;;;;;;9.02;3.10;;;;;;;22.46;48.51;101277.09;5025382;28;20076;-62
2022/08/23 00:21:17;;;;;;;6.38;2.63;;;;;;;22.44;48.62;101271.09;5026254;28;20054;-61
2022/08/23 00:23:47;;;;;;;5.28;2.40;;;;;;;22.43;48.45;101277.69;5026144;28;20057;-62
2022/08/23 00:26:14;;;;;;;6.22;2.50;;;;;;;22.43;48.27;101271.41;5037915;28;20084;-61
2022/08/23 00:28:42;;;;;;;8.00;3.25;;;;;;;22.40;48.38;101275.53;5045903;28;20060;-61
2022/08/23 00:31:10;;;;;;;4.85;2.22;;;;;;;22.40;48.62;101267.31;5045924;28;20049;-62
2022/08/23 00:33:38;;;;;;;4.50;2.88;;;;;;;22.40;48.58;101272.78;5044710;28;20049;-62
2022/08/23 00:36:05;;;;;;;6.28;3.17;;;;;;;22.38;48.64;101266.78;5045913;28;20084;-62
2022/08/23 00:38:33;;;;;;;7.95;3.38;;;;;;;22.35;48.59;101270.94;5028375;28;20074;-61
2022/08/23 00:41:04;;;;;;;4.57;2.22;;;;;;;22.33;48.27;101273.13;5025498;28;20076;-61
2022/08/23 00:49:25;;;;;;;8.05;2.90;;;;;;;22.30;48.71;101272.91;5029791;28;20053;-61
2022/08/23 00:51:59;;;;;;;7.35;3.05;;;;;;;22.29;48.89;101272.09;5026002;28;20070;-61
2022/08/23 00:54:29;;;;;;;7.35;3.65;;;;;;;22.27;48.83;101268.81;5025664;28;20085;-62
2022/08/23 00:57:03;;;;;;;6.78;2.90;;;;;;;22.26;48.72;101264.44;5026011;28;20088;-61
2022/08/23 00:59:31;;;;;;;6.75;2.42;;;;;;;22.25;48.88;101265.56;5026045;28;20157;-62
2022/08/23 01:02:00;;;;;;;4.20;2.47;;;;;;;22.24;49.04;101274.88;5025920;28;20086;-62
2022/08/23 01:04:32;;;;;;;5.05;2.80;;;;;;;22.23;48.92;101283.38;5025741;28;20050;-62
2022/08/23 01:07:03;;;;;;;5.72;2.72;;;;;;;22.20;49.13;101281.22;5026044;28;20057;-62
2022/08/23 01:09:31;;;;;;;6.85;3.30;;;;;;;22.21;49.10;101285.59;5025058;28;20085;-61
2022/08/23 01:12:06;;;;;;;4.63;2.35;;;;;;;22.19;48.91;101285.06;5025914;28;20096;-61
2022/08/23 01:14:38;;;;;;;6.93;3.05;;;;;;;22.18;49.02;101286.97;5044856;28;20069;-62
2022/08/23 01:17:12;;;;;;;3.42;2.28;;;;;;;22.17;49.16;101288.09;5045347;28;20077;-61
2022/08/23 01:19:47;;;;;;;4.55;2.60;;;;;;;22.14;49.40;101282.38;5032366;28;20394;-62
2022/08/23 01:22:20;;;;;;;4.88;2.30;;;;;;;22.14;49.45;101277.72;5025570;28;20046;-62
2022/08/23 01:24:50;;;;;;;9.35;3.38;;;;;;;22.12;49.31;101287.31;5025167;28;20130;-61
2022/08/23 01:27:35;;;;;;;;;;;;;;;22.10;49.42;101289.53;5026065;28;20081;-62
2022/08/23 01:30:04;;;;;;;4.32;2.70;;;;;;;22.08;49.38;101290.63;5026731;28;19944;-61
2022/08/23 01:32:35;;;;;;;5.85;2.70;;;;;;;22.07;49.56;101282.72;5029329;28;20160;-62
2022/08/23 01:35:05;;;;;;;5.13;2.30;;;;;;;22.05;49.49;101283.00;5029104;28;20133;-62
2022/08/23 01:37:33;;;;;;;6.60;3.55;;;;;;;22.04;49.63;101284.09;5041619;28;20060;-62
2022/08/23 01:40:03;;;;;;;6.07;2.80;;;;;;;22.03;49.78;101287.13;5048406;28;20049;-61
2022/08/23 01:42:31;;;;;;;5.97;2.97;;;;;;;22.00;49.81;101285.75;5048668;28;20414;-61
2022/08/23 01:45:00;;;;;;;4.95;2.63;;;;;;;21.98;49.62;101285.22;5048643;28;20045;-61
2022/08/23 01:47:28;;;;;;;5.70;3.08;;;;;;;21.95;49.73;101283.06;5035512;28;20049;-61
2022/08/23 01:49:56;;;;;;;5.65;2.95;;;;;;;21.97;50.00;101285.50;5028667;28;20045;-61
2022/08/23 01:52:23;;;;;;;4.97;2.80;;;;;;;21.96;49.99;101292.91;5028786;28;20050;-61
2022/08/23 01:54:51;;;;;;;5.82;3.10;;;;;;;21.94;50.10;101291.56;5028607;28;20073;-61
2022/08/23 01:57:20;;;;;;;5.97;3.30;;;;;;;21.92;50.00;101291.84;5028692;28;20050;-62
2022/08/23 01:59:48;;;;;;;5.47;2.88;;;;;;;21.91;50.11;101292.94;5028599;28;20050;-61
2022/08/23 02:02:16;;;;;;;12.02;3.72;;;;;;;21.89;49.77;101292.41;5028646;28;20056;-61
2022/08/23 02:04:43;;;;;;;9.48;3.10;;;;;;;21.89;49.88;101299.81;5029987;28;20053;-61
2022/08/23 02:07:11;;;;;;;6.57;2.97;;;;;;;21.87;50.01;101300.09;5048318;28;20072;-61
2022/08/23 02:09:39;;;;;;;4.70;2.88;;;;;;;21.86;50.07;101303.94;5047636;28;20057;-61
2022/08/23 02:12:07;;;;;;;7.82;3.08;;;;;;;21.84;50.19;101300.66;5048303;28;20076;-61
2022/08/23 02:14:40;;;;;;;6.22;2.45;;;;;;;21.83;50.00;101300.94;5047423;28;20084;-62
2022/08/23 02:17:08;;;;;;;5.70;3.05;;;;;;;21.81;49.99;101290.28;5047796;28;20072;-61
2022/08/23 02:19:38;;;;;;;11.10;2.80;;;;;;;21.81;49.92;101287.56;5047828;28;20053;-62
2022/08/23 02:22:08;;;;;;;6.47;2.95;;;;;;;21.79;49.88;101289.75;5041919;28;20054;-62
2022/08/23 02:24:40;;;;;;;4.68;2.40;;;;;;;21.79;50.10;101283.47;5027897;28;20077;-62
2022/08/23 02:27:08;;;;;;;7.03;2.72;;;;;;;21.77;50.17;101273.63;5028328;28;20089;-61
2022/08/23 02:29:38;;;;;;;8.52;2.63;;;;;;;21.77;49.91;101275.53;5028046;28;20054;-61
2022/08/23 02:32:06;;;;;;;3.83;2.15;;;;;;;21.73;50.25;101274.50;5028548;28;20093;-62
2022/08/23 02:34:36;;;;;;;7.97;2.90;;;;;;;21.65;50.19;101264.16;5028083;28;20160;-62
2022/08/23 02:37:04;;;;;;;5.60;2.97;;;;;;;21.73;50.06;101277.22;5028021;28;20056;-61
2022/08/23 02:39:33;;;;;;;7.63;2.72;;;;;;;21.70;50.12;101277.78;5027552;28;20092;-61
2022/08/23 02:42:01;;;;;;;7.40;2.70;;;;;;;21.69;50.25;101278.91;5027040;28;20077;-61
2022/08/23 02:44:33;;;;;;;9.82;3.15;;;;;;;21.69;50.42;101281.63;5037889;28;20049;-61
2022/08/23 02:47:06;;;;;;;6.88;3.03;;;;;;;21.68;50.01;101280.00;5047504;28;20054;-61
2022/08/23 02:49:34;;;;;;;4.50;3.00;;;;;;;21.66;50.35;101274.81;5047293;28;20107;-61
2022/08/23 02:52:02;;;;;;;6.70;3.10;;;;;;;21.66;50.44;101279.47;5047601;28;20072;-61
2022/08/23 02:54:30;;;;;;;8.07;3.08;;;;;;;21.64;50.28;101287.16;5046067;28;20045;-61
2022/08/23 02:56:57;;;;;;;7.22;2.75;;;;;;;21.63;50.25;101290.97;5047359;28;20080;-61
2022/08/23 02:59:25;;;;;;;6.35;3.17;;;;;;;21.62;50.43;101289.34;5046922;28;20080;-61
2022/08/23 03:01:53;;;;;;;5.82;2.92;;;;;;;21.60;50.47;101289.63;5042452;28;20516;-62
2022/08/23 03:04:24;;;;;;;5.63;2.67;;;;;;;21.59;50.37;101285.25;5027527;28;20052;-61
2022/08/23 03:06:52;;;;;;;6.35;2.80;;;;;;;21.59;50.50;101290.72;5027608;28;20468;-61
2022/08/23 03:09:19;;;;;;;8.63;2.80;;;;;;;21.58;50.70;101283.63;5026748;28;20057;-61
2022/08/23 03:11:49;;;;;;;6.20;2.78;;;;;;;21.57;50.65;101295.66;5044567;28;20076;-61
2022/08/23 03:14:17;;;;;;;6.68;3.15;;;;;;;21.57;50.63;101289.38;5046884;28;20077;-61
2022/08/23 03:16:44;;;;;;;8.20;2.97;;;;;;;21.56;50.47;101287.75;5043064;28;20054;-61
2022/08/23 03:19:13;;;;;;;7.25;2.70;;;;;;;21.54;50.71;101301.72;5027040;28;20088;-61
2022/08/23 03:21:42;;;;;;;7.82;2.90;;;;;;;21.53;50.64;101294.59;5029361;28;20046;-61
2022/08/23 03:24:11;;;;;;;9.07;3.42;;;;;;;21.52;50.76;101300.34;5046976;28;20055;-61
2022/08/23 03:26:42;;;;;;;7.00;2.95;;;;;;;21.52;50.76;101305.81;5046564;28;20072;-61
2022/08/23 03:29:10;;;;;;;6.60;2.78;;;;;;;21.51;50.84;101302.28;5045737;28;20077;-61
2022/08/23 03:31:37;;;;;;;6.20;3.30;;;;;;;21.47;50.87;101298.47;5046584;28;20081;-61
2022/08/23 03:34:05;;;;;;;7.32;3.00;;;;;;;21.50;50.85;101310.75;5046676;28;20073;-61
2022/08/23 03:36:33;;;;;;;6.25;2.90;;;;;;;21.47;50.92;101312.16;5045615;28;20088;-61
2022/08/23 03:39:04;;;;;;;6.50;3.00;;;;;;;21.44;50.98;101315.44;5046578;28;20503;-61
2022/08/23 03:41:31;;;;;;;4.95;2.92;;;;;;;21.46;50.88;101312.44;5046245;28;20046;-60
2022/08/23 03:43:59;;;;;;;7.90;3.38;;;;;;;21.44;50.95;101319.00;5046466;28;20522;-60
2022/08/23 03:46:27;;;;;;;6.70;2.88;;;;;;;21.43;50.90;101311.91;5027088;28;20519;-61
2022/08/23 03:49:01;;;;;;;5.15;2.85;;;;;;;21.42;51.03;101310.25;5026847;28;20046;-61
2022/08/23 03:51:30;;;;;;;4.80;2.95;;;;;;;21.42;51.02;101312.19;5026395;28;20069;-61
2022/08/23 03:53:58;;;;;;;6.38;2.85;;;;;;;21.40;51.16;101309.72;5026314;28;20077;-61
2022/08/23 03:56:30;;;;;;;7.28;3.03;;;;;;;21.39;51.15;101315.47;5026175;28;20050;-61
2022/08/23 03:59:00;;;;;;;4.95;2.75;;;;;;;21.38;51.33;101314.66;5026692;28;20065;-61
2022/08/23 04:01:28;;;;;;;4.93;3.20;;;;;;;21.37;51.21;101323.97;5031126;28;20359;-61
2022/08/23 04:03:58;;;;;;;5.63;3.08;;;;;;;21.37;51.25;101312.22;5026546;28;20104;-61
2022/08/23 04:06:26;;;;;;;6.18;3.38;;;;;;;21.35;51.43;101323.44;5026557;28;20053;-61
2022/08/23 04:08:55;;;;;;;5.20;2.72;;;;;;;21.35;51.28;101323.44;5026081;28;20062;-61
2022/08/23 04:11:24;;;;;;;6.78;3.00;;;;;;;21.33;51.41;101330.28;5026083;28;20109;-61
2022/08/23 04:13:53;;;;;;;6.18;3.20;;;;;;;21.32;51.44;101332.19;5026371;28;20050;-61
2022/08/23 04:16:21;;;;;;;4.90;2.85;;;;;;;21.32;51.44;101334.94;5025720;28;20077;-61
2022/08/23 04:18:49;;;;;;;7.72;3.60;;;;;;;21.32;51.37;101331.38;5026395;28;20058;-61
2022/08/23 04:21:21;;;;;;;5.40;2.90;;;;;;;21.29;51.35;101331.94;5026417;28;20077;-61
2022/08/23 04:23:49;;;;;;;5.45;2.70;;;;;;;21.29;51.49;101338.22;5026314;28;20056;-61
2022/08/23 04:26:17;;;;;;;7.07;3.30;;;;;;;21.29;51.51;101335.50;5025759;28;20057;-60
2022/08/23 04:28:44;;;;;;;6.47;3.35;;;;;;;21.27;51.56;101340.44;5026201;28;20050;-61
2022/08/23 04:31:14;;;;;;;5.32;3.08;;;;;;;21.26;51.49;101341.53;5026030;28;20050;-61
2022/08/23 04:33:41;;;;;;;6.38;3.17;;;;;;;21.27;51.54;101342.34;5025815;28;20430;-61
2022/08/23 04:36:09;;;;;;;5.35;3.20;;;;;;;21.25;51.55;101339.88;5025089;28;20050;-61
2022/08/23 04:38:37;;;;;;;6.57;2.90;;;;;;;21.24;51.62;101345.63;5033951;28;20080;-61
2022/08/23 04:43:50;;;;;;;6.40;3.10;;;;;;;21.23;51.61;101338.53;5045141;28;20049;-60
2022/08/23 04:46:19;;;;;;;6.20;2.60;;;;;;;21.22;51.65;101342.38;5026019;28;20042;-61
2022/08/23 04:48:47;;;;;;;6.60;3.40;;;;;;;21.22;51.74;101345.09;5026329;28;20050;-61
2022/08/23 04:51:15;;;;;;;5.80;3.17;;;;;;;21.21;51.67;101346.16;5025608;28;20046;-61
2022/08/23 04:53:43;;;;;;;6.95;2.88;;;;;;;21.19;51.99;101340.16;5026207;28;20049;-61
2022/08/23 04:56:11;;;;;;;6.10;3.42;;;;;;;21.18;51.87;101344.81;5025348;28;20483;-61
2022/08/23 04:58:40;;;;;;;7.70;3.90;;;;;;;21.18;51.89;101347.53;5026176;28;20092;-61
2022/08/23 05:01:09;;;;;;;5.53;2.72;;;;;;;21.16;52.05;101352.47;5025553;28;20491;-61
2022/08/23 05:03:38;;;;;;;7.22;3.30;;;;;;;21.17;51.80;101361.50;5038750;28;20104;-61
2022/08/23 05:06:06;;;;;;;7.22;3.25;;;;;;;21.16;52.16;101363.41;5048271;28;20049;-61
2022/08/23 05:08:35;;;;;;;8.80;3.40;;;;;;;21.16;51.92;101363.41;5049251;28;20049;-61
2022/08/23 05:11:04;;;;;;;6.18;2.90;;;;;;;21.16;52.30;101368.06;5048996;28;20046;-61
2022/08/23 05:13:32;;;;;;;6.13;3.30;;;;;;;21.17;52.34;101369.69;5036133;28;20527;-61
2022/08/23 05:16:03;;;;;;;5.32;3.10;;;;;;;21.13;52.20;101367.53;5029371;28;20046;-61
2022/08/23 05:18:31;;;;;;;4.82;3.08;;;;;;;21.11;52.18;101366.97;5029402;28;20081;-60
2022/08/23 05:21:00;;;;;;;6.70;3.03;;;;;;;21.12;52.09;101365.06;5028886;28;20069;-60
2022/08/23 05:23:28;;;;;;;10.18;3.75;;;;;;;21.13;52.24;101374.91;5029417;28;20074;-60
2022/08/23 05:25:59;;;;;;;8.02;3.45;;;;;;;21.12;52.24;101373.25;5028734;28;20049;-61
2022/08/23 05:28:30;;;;;;;6.63;3.70;;;;;;;21.09;52.38;101360.16;5029020;28;20060;-61
2022/08/23 05:31:00;;;;;;;6.38;2.97;;;;;;;21.10;52.21;101372.72;5028927;28;20046;-60
2022/08/23 05:33:30;;;;;;;6.18;3.45;;;;;;;21.10;52.25;101375.47;5029193;28;20054;-61
2022/08/23 05:35:58;;;;;;;5.53;2.80;;;;;;;21.09;52.27;101385.56;5029183;28;20073;-61
2022/08/23 05:38:27;;;;;;;6.10;3.47;;;;;;;21.07;52.17;101373.28;5029022;28;20077;-60
2022/08/23 05:40:57;;;;;;;5.90;3.08;;;;;;;21.06;52.13;101377.94;5028662;28;20161;-61
2022/08/23 05:43:26;;;;;;;4.75;2.80;;;;;;;21.06;52.36;101390.78;5029062;28;20080;-61
2022/08/23 05:46:01;;;;;;;5.85;3.22;;;;;;;21.03;52.38;101380.41;5028783;28;20061;-61
2022/08/23 05:48:30;;;;;;;6.45;3.30;;;;;;;21.05;52.30;101397.34;5029001;28;20058;-61
2022/08/23 05:51:09;;;;;;;5.00;3.30;;;;;;;21.04;52.29;101403.91;5028510;28;20045;-61
2022/08/23 05:53:39;;;;;;;5.18;3.03;;;;;;;21.03;52.17;101403.09;5028902;28;20439;-61
2022/08/23 05:56:11;;;;;;;5.72;3.38;;;;;;;21.03;52.31;101403.09;5028381;28;20074;-61
2022/08/23 05:58:40;;;;;;;5.65;3.55;;;;;;;21.03;52.15;101410.47;5048529;28;20127;-61
2022/08/23 06:01:09;;;;;;;6.00;3.20;;;;;;;21.03;52.38;101418.66;5048136;28;20049;-61
2022/08/23 06:03:36;;;;;;;5.72;2.70;;;;;;;21.03;52.21;101418.66;5034624;28;20058;-61
2022/08/23 06:06:05;;;;;;;6.00;3.17;;;;;;;21.01;52.25;101424.41;5028447;28;20076;-61
2022/08/23 06:08:34;;;;;;;6.45;3.25;;;;;;;21.02;52.21;101419.75;5028588;28;20058;-61
2022/08/23 06:11:06;;;;;;;7.70;3.22;;;;;;;21.01;52.24;101429.06;5027847;28;20057;-61
2022/08/23 06:13:34;;;;;;;5.72;3.15;;;;;;;20.99;52.22;101426.59;5028435;28;20084;-61
2022/08/23 06:16:05;;;;;;;7.80;3.13;;;;;;;20.99;52.25;101423.88;5040780;28;20057;-61
2022/08/23 06:18:43;;;;;;;5.43;3.30;;;;;;;21.00;52.22;101413.75;5047992;28;20045;-62
2022/08/23 06:21:12;;;;;;;9.07;3.30;;;;;;;20.98;52.32;101419.50;5046191;28;20093;-61
2022/08/23 06:23:41;;;;;;;6.20;3.53;;;;;;;21.00;52.33;101420.03;5028237;28;20089;-61
2022/08/23 06:26:15;;;;;;;7.95;3.42;;;;;;;21.01;52.34;101424.41;5027687;28;20049;-61
2022/08/23 06:28:45;;;;;;;8.52;3.83;;;;;;;21.01;52.34;101424.41;5028125;28;20057;-61
2022/08/23 06:31:44;;;;;;;5.13;3.33;;;;;;;20.98;52.42;101415.94;5028054;28;20049;-61
2022/08/23 06:34:07;;;;;;;6.18;3.20;;;;;;;21.01;52.56;101424.41;5027933;28;20053;-61
2022/08/23 06:36:36;;;;;;;7.30;3.78;;;;;;;21.00;52.35;101413.75;5028184;28;20049;-61
2022/08/23 06:39:04;;;;;;;6.75;3.28;;;;;;;21.02;52.47;101417.84;5027738;28;20381;-61
2022/08/23 06:41:33;;;;;;;9.60;3.28;;;;;;;21.04;52.75;101423.84;5027402;28;20078;-61
2022/08/23 06:44:02;;;;;;;6.18;3.03;;;;;;;21.06;52.29;101420.84;5027940;28;20153;-61
2022/08/23 06:46:31;;;;;;;5.07;2.88;;;;;;;21.07;52.21;101417.84;5027844;28;20054;-62
2022/08/23 06:49:03;;;;;;;6.22;3.15;;;;;;;21.11;52.12;101423.56;5027756;28;20131;-61
2022/08/23 06:51:34;;;;;;;8.60;3.40;;;;;;;21.13;52.13;101416.72;5027680;28;20068;-61
2022/08/23 06:54:05;;;;;;;5.93;3.40;;;;;;;21.17;52.18;101421.63;5027753;28;20073;-61
2022/08/23 06:56:35;;;;;;;8.32;3.22;;;;;;;21.20;52.20;101429.28;5027407;28;20042;-61
2022/08/23 06:59:04;;;;;;;6.78;3.67;;;;;;;21.21;52.23;101415.31;5027529;28;20084;-61
2022/08/23 07:01:37;;;;;;;9.18;3.45;;;;;;;21.25;52.29;101418.34;5027286;28;20077;-62
2022/08/23 07:04:16;;;;;;;5.93;3.30;;;;;;;21.27;52.37;101419.72;5027348;28;20042;-62
2022/08/23 07:06:44;;;;;;;7.80;3.50;;;;;;;21.30;52.32;101418.34;5027843;28;20054;-61
2022/08/23 07:09:12;;;;;;;7.65;3.38;;;;;;;21.33;52.27;101424.06;5027272;28;20054;-61
2022/08/23 07:11:42;;;;;;;6.80;3.72;;;;;;;21.37;52.35;101422.41;5026909;28;20180;-61
2022/08/23 07:14:14;;;;;;;10.30;4.35;;;;;;;21.40;52.27;101421.03;5027335;28;20049;-61
2022/08/23 07:16:45;;;;;;;6.85;3.58;;;;;;;21.41;52.40;101426.22;5027037;28;20077;-61
2022/08/23 07:19:13;;;;;;;7.72;3.42;;;;;;;21.44;52.36;101425.66;5027209;28;20084;-61
2022/08/23 07:21:41;;;;;;;9.30;3.53;;;;;;;21.45;52.55;101423.75;5027108;28;20077;-61
2022/08/23 07:24:09;;;;;;;7.95;3.72;;;;;;;21.49;52.41;101429.47;5027127;28;20042;-61
2022/08/23 07:26:38;;;;;;;9.10;3.65;;;;;;;21.51;52.52;101425.34;5026592;28;20468;-61
2022/08/23 07:29:10;;;;;;;9.48;3.42;;;;;;;21.53;52.32;101428.63;5026784;28;20053;-61
2022/08/23 07:31:41;;;;;;;8.18;3.50;;;;;;;21.56;52.49;101440.94;5026984;28;20049;-61
2022/08/23 07:34:09;;;;;;;5.38;3.83;;;;;;;21.57;52.54;101443.38;5026717;28;20050;-61
2022/08/23 07:36:39;;;;;;;7.45;3.50;;;;;;;21.59;52.76;101443.09;5026733;28;20074;-61
2022/08/23 07:39:07;;;;;;;6.63;3.58;;;;;;;21.61;52.69;101444.44;5026911;28;20045;-61
2022/08/23 07:41:37;;;;;;;10.15;3.90;;;;;;;21.61;52.66;101438.97;5026224;28;20092;-61
2022/08/23 07:44:08;;;;;;;7.68;3.53;;;;;;;21.64;52.73;101445.81;5026590;28;20531;-61
2022/08/23 07:46:38;;;;;;;8.68;3.83;;;;;;;21.65;52.74;101447.44;5026407;28;20050;-62
2022/08/23 07:49:08;;;;;;;10.32;4.50;;;;;;;21.64;52.96;101443.88;5026855;28;20064;-62
2022/08/23 07:51:37;;;;;;;7.45;3.75;;;;;;;21.68;53.04;101455.09;5026364;28;20072;-62
2022/08/23 07:54:08;;;;;;;5.50;3.40;;;;;;;21.68;53.11;101452.34;5026718;28;20057;-62
2022/08/23 07:56:36;;;;;;;8.00;4.22;;;;;;;21.67;52.92;101450.72;5026419;28;20045;-61
2022/08/23 07:59:04;;;;;;;5.28;3.45;;;;;;;21.66;53.00;101460.03;5026353;28;20377;-61
2022/08/23 08:01:33;;;;;;;5.88;3.67;;;;;;;21.67;53.22;101458.94;5026255;28;20053;-62
2022/08/23 08:04:03;;;;;;;6.90;3.38;;;;;;;21.66;53.00;101457.28;5026485;28;20046;-61
2022/08/23 08:06:34;;;;;;;6.72;3.85;;;;;;;21.61;53.02;101455.41;5026592;28;20396;-62
2022/08/23 08:09:02;;;;;;;10.93;3.60;;;;;;;21.63;53.24;101455.94;5026075;28;20064;-61
2022/08/23 08:11:32;;;;;;;8.82;4.10;;;;;;;21.64;53.51;101459.47;5025837;28;20527;-61
2022/08/23 08:14:03;;;;;;;6.32;4.38;;;;;;;21.66;53.44;101468.22;5026566;28;20084;-61
2022/08/23 08:16:35;;;;;;;7.18;4.45;;;;;;;21.65;53.46;101464.69;5025888;28;20050;-61
2022/08/23 08:19:05;;;;;;;7.28;4.25;;;;;;;21.67;54.00;101464.41;5025921;28;20070;-62
2022/08/23 08:21:36;;;;;;;7.30;3.53;;;;;;;21.68;53.93;101471.50;5026321;28;20046;-62
2022/08/23 08:24:11;;;;;;;6.20;4.03;;;;;;;21.69;53.77;101473.97;5026230;28;20525;-62
2022/08/23 08:26:40;;;;;;;8.32;3.70;;;;;;;21.71;53.93;101473.69;5025796;28;20053;-62
2022/08/23 08:29:10;;;;;;;10.63;4.07;;;;;;;21.71;53.88;101465.47;5026084;28;20069;-61
2022/08/23 08:31:41;;;;;;;8.30;3.55;;;;;;;21.74;54.07;101473.13;5026164;28;20052;-61
2022/08/23 08:34:11;;;;;;;10.43;3.67;;;;;;;21.75;54.00;101481.03;5026396;28;20056;-62
2022/08/23 08:36:42;;;;;;;6.97;3.25;;;;;;;21.75;54.00;101472.84;5026035;28;20081;-61
2022/08/23 08:39:12;;;;;;;7.80;3.70;;;;;;;21.74;53.96;101467.66;5025818;28;20446;-62
2022/08/23 08:42:02;;;;;;;9.80;3.63;;;;;;;21.76;54.07;101465.44;5029767;28;20069;-62
2022/08/23 08:44:40;;;;;;;8.85;3.78;;;;;;;21.80;54.08;101465.69;5030070;28;20057;-61
2022/08/23 08:47:15;;;;;;;7.78;3.42;;;;;;;21.80;54.32;101469.25;5030538;28;20054;-62
2022/08/23 08:49:49;;;;;;;9.23;3.73;;;;;;;21.82;54.44;101478.00;5049788;28;20048;-62
2022/08/23 08:52:23;;;;;;;9.25;4.00;;;;;;;21.84;54.47;101475.81;5049455;28;20056;-61
2022/08/23 08:54:59;;;;;;;8.07;4.18;;;;;;;21.87;54.51;101474.41;5049510;28;20060;-61
2022/08/23 08:57:30;;;;;;;8.95;3.42;;;;;;;21.87;54.49;101475.25;5040880;28;20054;-62
2022/08/23 09:00:01;;;;;;;7.88;3.55;;;;;;;21.89;54.41;101483.16;5029524;28;20506;-62
2022/08/23 09:02:33;;;;;;;9.35;3.97;;;;;;;21.91;54.28;101490.00;5048197;28;20060;-62
2022/08/23 09:05:03;;;;;;;9.02;4.55;;;;;;;21.92;54.51;101491.63;5041355;28;20080;-62
2022/08/23 09:07:43;;;;;;;7.85;3.63;;;;;;;21.96;54.72;101487.22;5029690;28;20072;-61
2022/08/23 09:10:42;;;;;;;9.75;3.97;;;;;;;21.99;54.52;101489.41;5029090;28;20050;-62
2022/08/23 09:13:32;;;;;;;9.30;3.60;;;;;;;22.02;54.44;101488.06;5029515;28;20050;-62
2022/08/23 09:16:08;;;;;;;6.30;3.42;;;;;;;22.06;54.54;101491.84;5047869;28;20057;-62
2022/08/23 09:18:37;;;;;;;8.10;4.45;;;;;;;22.07;54.56;101486.09;5049115;28;20197;-61
2022/08/23 09:21:08;;;;;;;11.15;4.10;;;;;;;22.10;54.54;101490.19;5048839;28;20076;-61
2022/08/23 09:23:41;;;;;;;11.25;3.90;;;;;;;22.13;54.55;101491.53;5048158;28;20053;-61
2022/08/23 09:26:18;;;;;;;6.35;3.30;;;;;;;22.17;54.75;101487.97;5038822;28;20054;-61
2022/08/23 09:28:46;;;;;;;10.20;3.25;;;;;;;22.19;54.71;101485.75;5029332;28;20077;-62
2022/08/23 09:31:40;;;;;;;8.30;3.20;;;;;;;22.23;54.37;101492.28;5034616;28;20041;-62
2022/08/23 09:34:10;;;;;;;10.70;4.07;;;;;;;22.26;54.49;101494.47;5048969;28;20056;-62
2022/08/23 09:36:38;;;;;;;8.43;3.30;;;;;;;22.29;54.46;101495.81;5048706;28;20530;-62
2022/08/23 09:39:08;;;;;;;5.55;2.97;;;;;;;22.33;54.29;101496.88;5048867;28;20057;-61
2022/08/23 09:41:40;;;;;;;9.20;3.30;;;;;;;22.36;54.72;101494.41;5031131;28;20081;-62
2022/08/23 09:44:12;;;;;;;8.98;3.33;;;;;;;22.40;54.27;101491.91;5029152;28;20049;-61
2022/08/23 09:46:41;;;;;;;7.43;2.60;;;;;;;22.38;54.21;101483.16;5028610;28;20397;-62
2022/08/23 09:49:31;;;;;;;9.73;3.40;;;;;;;22.49;54.56;101492.13;5041295;28;20045;-61
2022/08/23 09:52:09;;;;;;;7.38;2.97;;;;;;;22.53;54.54;101483.03;5044990;28;20084;-62
2022/08/23 09:54:37;;;;;;;7.18;2.97;;;;;;;22.58;54.86;101488.44;5048334;28;20049;-61
2022/08/23 09:57:09;;;;;;;6.25;3.33;;;;;;;22.62;54.38;101488.69;5042523;28;20053;-61
2022/08/23 09:59:41;;;;;;;6.85;3.17;;;;;;;22.67;54.68;101489.47;5028426;28;20480;-61
2022/08/23 10:02:17;;;;;;;7.28;3.03;;;;;;;22.74;54.65;101483.66;5028605;28;20057;-61
2022/08/23 10:04:58;;;;;;;6.70;2.63;;;;;;;22.78;54.64;101475.66;5028319;28;20464;-61
2022/08/23 10:07:32;;;;;;;6.82;2.70;;;;;;;22.82;54.19;101476.75;5028420;28;20077;-61
2022/08/23 10:10:17;;;;;;;6.28;2.88;;;;;;;22.88;54.69;101468.19;5036240;28;20060;-61
2022/08/23 10:12:45;;;;;;;9.50;3.15;;;;;;;22.95;55.11;101463.19;5048227;28;20053;-61
2022/08/23 10:15:14;;;;;;;7.82;2.58;;;;;;;23.03;54.99;101467.22;5048086;28;20479;-62
2022/08/23 10:17:51;;;;;;;7.88;2.13;;;;;;;23.05;54.77;101467.75;5046858;28;20087;-62
2022/08/23 10:20:32;;;;;;;6.18;2.75;;;;;;;23.11;54.48;101461.13;5046746;28;20180;-62
2022/08/23 10:23:13;;;;;;;7.25;3.13;;;;;;;23.16;54.40;101472.03;5028062;28;20504;-61
2022/08/23 10:25:45;;;;;;;8.20;3.10;;;;;;;23.17;54.21;101468.19;5027778;28;20062;-62
2022/08/23 10:31:14;;;;;;;9.55;3.17;;;;;;;23.26;54.58;101471.91;5027680;28;20069;-62
2022/08/23 10:33:46;;;;;;;6.50;2.60;;;;;;;23.30;54.90;101462.00;5028377;28;20128;-61
2022/08/23 10:36:23;;;;;;;5.57;2.50;;;;;;;23.43;54.56;101462.41;5027887;28;20070;-62
2022/08/23 10:38:56;;;;;;;4.32;2.30;;;;;;;23.47;53.93;101460.69;5028151;28;20081;-61
2022/08/23 10:41:47;;;;;;;4.63;2.10;;;;;;;23.52;53.59;101463.38;5027372;28;20064;-61
2022/08/23 10:44:28;;;;;;;8.40;3.20;;;;;;;23.54;53.68;101467.50;5028139;28;20077;-61
2022/08/23 10:47:10;;;;;;;8.82;2.55;;;;;;;23.59;53.91;101458.38;5027440;28;20082;-61
2022/08/23 10:49:40;;;;;;;4.32;2.35;;;;;;;23.66;53.73;101453.34;5027813;28;20042;-62
2022/08/23 10:52:15;;;;;;;4.97;2.25;;;;;;;23.71;53.21;101447.78;5027250;28;20057;-62
2022/08/23 10:54:58;;;;;;;10.15;2.58;;;;;;;23.78;53.69;101456.47;5027789;28;20077;-62
2022/08/23 10:57:32;;;;;;;5.40;1.95;;;;;;;23.85;53.25;101450.63;5040317;28;20065;-61
2022/08/23 11:00:01;;;;;;;5.95;2.00;;;;;;;23.89;53.32;101457.97;5046914;28;20550;-61
2022/08/23 11:02:41;;;;;;;4.80;1.73;;;;;;;23.97;53.20;101453.75;5045246;28;20081;-61
2022/08/23 11:05:19;;;;;;;5.88;2.33;;;;;;;24.06;53.21;101449.22;5047260;28;20045;-62
2022/08/23 11:08:02;;;;;;;5.40;1.92;;;;;;;24.09;52.81;101454.13;5046902;28;20056;-61
2022/08/23 11:10:42;;;;;;;3.47;1.73;;;;;;;24.09;52.56;101453.28;5043546;28;20050;-62
2022/08/23 11:13:25;;;;;;;2.92;1.70;;;;;;;24.13;52.92;101452.41;5027338;28;20109;-62
2022/08/23 11:15:59;;;;;;;3.80;2.13;;;;;;;24.18;52.41;101454.25;5027356;28;20089;-61
2022/08/23 11:18:41;;;;;;;4.18;1.95;;;;;;;24.14;51.91;101445.78;5027025;28;20129;-62
2022/08/23 11:21:43;;;;;;;5.72;2.20;;;;;;;24.21;52.39;101448.16;5033016;28;20121;-62
2022/08/23 11:24:34;;;;;;;5.47;2.70;;;;;;;24.20;52.67;101438.28;5047069;28;20049;-62
2022/08/23 11:27:06;;;;;;;6.03;2.45;;;;;;;24.33;52.64;101451.28;5046433;28;20061;-62
2022/08/23 11:29:44;;;;;;;4.35;1.95;;;;;;;24.32;51.97;101444.97;5039297;28;20052;-62
2022/08/23 11:32:27;;;;;;;4.57;1.85;;;;;;;24.40;52.03;101445.38;5026753;28;20073;-61
2022/08/23 11:35:07;;;;;;;4.45;1.83;;;;;;;24.52;52.19;101451.22;5027002;28;20056;-61
2022/08/23 11:37:55;;;;;;;5.18;1.80;;;;;;;24.55;51.46;101450.63;5026923;28;20053;-62
2022/08/23 11:40:55;;;;;;;4.63;1.88;;;;;;;24.64;51.91;101449.63;5026217;28;20041;-61
2022/08/23 11:43:27;;;;;;;4.40;1.67;;;;;;;24.72;52.85;101444.56;5026803;28;20053;-62
2022/08/23 11:46:25;;;;;;;3.78;1.60;;;;;;;24.79;52.81;101448.56;5026950;28;20046;-62
2022/08/23 11:49:01;;;;;;;3.80;2.10;;;;;;;24.82;52.16;101445.19;5026548;28;20415;-62
2022/08/23 11:51:37;;;;;;;5.82;1.95;;;;;;;24.86;52.08;101443.47;5026562;28;20046;-61
2022/08/23 11:54:21;;;;;;;3.50;1.90;;;;;;;24.88;51.49;101454.16;5026696;28;20054;-62
2022/08/23 11:57:07;;;;;;;5.15;1.95;;;;;;;24.92;51.52;101453.25;5027483;28;20117;-62